KTPF/TPF METAR and TAF weather

Enter ICAO airport designator
Station Type Date Time Source
KTPF METAR 2018/12/17 02:55 UTC NOAA

KTPF 170255Z AUTO 00000KT 10SM OVC028 16/12 A3017 RMK AO2


Station Type Date Time Source
KTPF Decoded METAR 2018/12/17 02:55 UTC NOAA

Tampa, Peter O Knight Airport, FL, United States (KTPF) 27-54-56N 082-26-57W
Dec 16, 2018 - 09:55 PM EST / 2018.12.17 0255 UTC
Wind: Calm:0
Visibility: 10 mile(s):0
Sky conditions: overcast
Temperature: 60 F (16 C)
Dew Point: 53 F (12 C)
Relative Humidity: 77%
Pressure (altimeter): 30.17 in. Hg (1021 hPa)
ob: KTPF 170255Z AUTO 00000KT 10SM OVC028 16/12 A3017 RMK AO2
cycle: 3

Station Type Date Time Source
KTPF TAF UTC NOAA

Error!


Example: see airport list